createdAt,value
2019-06-26T00:00:03.547Z,98587.11
2019-06-26T00:02:35.694Z,98586.30
2019-06-26T00:05:05.559Z,98586.66
2019-06-26T00:07:35.848Z,98583.80
2019-06-26T00:10:06.591Z,98593.92
2019-06-26T00:12:35.976Z,98589.27
2019-06-26T00:15:06.492Z,98589.77
2019-06-26T00:17:35.862Z,98593.02
2019-06-26T00:20:07.539Z,98590.84
2019-06-26T00:22:36.743Z,98596.94
2019-06-26T00:25:06.071Z,98590.80
2019-06-26T00:27:35.193Z,98599.48
2019-06-26T00:30:04.730Z,98602.92
2019-06-26T00:32:33.976Z,98603.86
2019-06-26T00:35:04.193Z,98602.48
2019-06-26T00:37:33.693Z,98614.37
2019-06-26T00:40:02.702Z,98611.30
2019-06-26T00:42:31.913Z,98607.00
2019-06-26T00:45:01.113Z,98611.78
2019-06-26T00:47:32.235Z,98610.77
2019-06-26T00:50:02.362Z,98602.52
2019-06-26T00:52:32.587Z,98608.38
2019-06-26T00:55:02.752Z,98613.47
2019-06-26T00:57:34.106Z,98613.83
2019-06-26T01:00:09.551Z,98611.08
2019-06-26T01:02:40.150Z,98610.84
2019-06-26T01:05:11.427Z,98609.38
2019-06-26T01:07:41.680Z,98606.39
2019-06-26T01:10:12.576Z,98612.45
2019-06-26T01:12:43.993Z,98614.87
2019-06-26T01:15:14.343Z,98613.52
2019-06-26T01:17:44.566Z,98616.50
2019-06-26T01:20:14.967Z,98621.09
2019-06-26T01:22:45.262Z,98619.28
2019-06-26T01:25:15.644Z,98623.19
2019-06-26T01:27:45.986Z,98628.23
2019-06-26T01:30:16.406Z,98627.88
2019-06-26T01:32:46.691Z,98628.68
2019-06-26T01:35:16.803Z,98627.63
2019-06-26T01:37:46.986Z,98630.04
2019-06-26T01:40:17.608Z,98625.02
2019-06-26T01:42:48.531Z,98623.20
2019-06-26T01:45:19.288Z,98626.51
2019-06-26T01:47:49.504Z,98622.54
2019-06-26T01:50:19.802Z,98626.86
2019-06-26T01:52:50.129Z,98625.49
2019-06-26T01:55:20.324Z,98621.28
2019-06-26T01:57:50.543Z,98619.78
2019-06-26T02:00:21.713Z,98614.55
2019-06-26T02:02:51.892Z,98617.06
2019-06-26T02:05:21.967Z,98616.38
2019-06-26T02:07:52.094Z,98624.40
2019-06-26T02:10:22.435Z,98623.02
2019-06-26T02:12:52.571Z,98623.83
2019-06-26T02:15:23.045Z,98629.88
2019-06-26T02:17:53.161Z,98628.63
2019-06-26T02:20:23.401Z,98627.93
2019-06-26T02:22:53.566Z,98628.84
2019-06-26T02:25:23.644Z,98627.13
2019-06-26T02:27:53.813Z,98619.82
2019-06-26T02:30:23.941Z,98616.27
2019-06-26T02:32:54.096Z,98621.55
2019-06-26T02:35:24.348Z,98627.95
2019-06-26T02:37:54.570Z,98628.41
2019-06-26T02:40:24.795Z,98629.06
2019-06-26T02:42:55.292Z,98627.70
2019-06-26T02:45:25.968Z,98626.08
2019-06-26T02:47:56.178Z,98623.58
2019-06-26T02:50:26.756Z,98630.09
2019-06-26T02:52:56.913Z,98631.33
2019-06-26T02:55:27.021Z,98632.24
2019-06-26T02:57:57.183Z,98631.89
2019-06-26T03:00:27.310Z,98631.78
2019-06-26T03:02:57.591Z,98633.05
2019-06-26T03:05:27.688Z,98628.94
2019-06-26T03:07:57.949Z,98632.14
2019-06-26T03:10:28.537Z,98633.61
2019-06-26T03:12:59.008Z,98634.17
2019-06-26T03:15:29.187Z,98637.63
2019-06-26T03:17:59.478Z,98639.31
2019-06-26T03:20:33.543Z,98641.48
2019-06-26T03:23:03.986Z,98640.79
2019-06-26T03:25:34.422Z,98639.31
2019-06-26T03:28:04.604Z,98638.84
2019-06-26T03:30:34.755Z,98634.63
2019-06-26T03:33:04.958Z,98642.92
2019-06-26T03:35:35.092Z,98641.23
2019-06-26T03:38:05.793Z,98634.02
2019-06-26T03:40:36.241Z,98642.14
2019-06-26T03:43:06.352Z,98641.22
2019-06-26T03:45:36.555Z,98644.84
2019-06-26T03:48:06.927Z,98642.25
2019-06-26T03:50:37.159Z,98646.46
2019-06-26T03:53:07.410Z,98638.00
2019-06-26T03:55:37.520Z,98644.74
2019-06-26T03:58:06.707Z,98646.91
2019-06-26T04:00:40.093Z,98656.42
2019-06-26T04:03:10.259Z,98656.42
2019-06-26T04:05:40.398Z,98653.02
2019-06-26T04:08:10.508Z,98659.30
2019-06-26T04:10:43.185Z,98656.07
2019-06-26T04:13:12.620Z,98664.30
2019-06-26T04:15:42.926Z,98663.42
2019-06-26T04:18:13.373Z,98667.78
2019-06-26T04:20:43.499Z,98672.58
2019-06-26T04:23:12.855Z,98678.77
2019-06-26T04:25:41.958Z,98668.38
2019-06-26T04:28:11.034Z,98673.98
2019-06-26T04:30:40.150Z,98674.95
2019-06-26T04:33:09.343Z,98677.23
2019-06-26T04:35:39.773Z,98681.47
2019-06-26T04:38:08.939Z,98678.25
2019-06-26T04:40:39.144Z,98678.48
2019-06-26T04:43:09.343Z,98677.90
2019-06-26T04:45:38.732Z,98677.88
2019-06-26T04:48:09.048Z,98680.86
2019-06-26T04:50:38.699Z,98686.80
2019-06-26T04:53:08.013Z,98687.02
2019-06-26T04:55:38.393Z,98688.26
2019-06-26T04:58:07.848Z,98685.61
2019-06-26T05:00:37.818Z,98692.94
2019-06-26T05:03:07.203Z,98685.57
2019-06-26T05:05:39.963Z,98690.89
2019-06-26T05:08:10.214Z,98695.06
2019-06-26T05:10:46.337Z,98694.75
2019-06-26T05:13:16.821Z,98694.81
2019-06-26T05:15:47.522Z,98692.65
2019-06-26T05:18:18.162Z,98698.58
2019-06-26T05:20:48.882Z,98697.55
2019-06-26T05:23:19.582Z,98700.43
2019-06-26T05:25:50.363Z,98704.38
2019-06-26T05:28:37.858Z,98705.17
2019-06-26T05:31:07.298Z,98708.44
2019-06-26T05:33:37.846Z,98710.25
2019-06-26T05:36:08.778Z,98706.05
2019-06-26T05:38:39.072Z,98715.78
2019-06-26T05:41:11.282Z,98714.09
2019-06-26T05:43:41.925Z,98707.18
2019-06-26T05:46:12.847Z,98713.55
2019-06-26T05:48:43.878Z,98723.09
2019-06-26T05:51:15.048Z,98717.27
2019-06-26T05:53:45.401Z,98720.01
2019-06-26T05:56:15.862Z,98720.93
2019-06-26T05:58:47.361Z,98723.44
2019-06-26T06:01:19.427Z,98729.88
2019-06-26T06:03:49.860Z,98728.64
2019-06-26T06:06:20.194Z,98735.75
2019-06-26T06:08:50.440Z,98733.14
2019-06-26T06:11:20.743Z,98732.57
2019-06-26T06:13:51.325Z,98737.86
2019-06-26T06:16:21.786Z,98741.30
2019-06-26T06:18:51.585Z,98739.50
2019-06-26T06:21:21.696Z,98741.63
2019-06-26T06:23:52.029Z,98745.08
2019-06-26T06:26:22.322Z,98739.91
2019-06-26T06:28:52.616Z,98741.70
2019-06-26T06:31:22.857Z,98737.32
2019-06-26T06:33:54.155Z,98744.75
2019-06-26T06:36:23.452Z,98742.56
2019-06-26T06:38:53.564Z,98749.66
2019-06-26T06:41:23.812Z,98748.39
2019-06-26T06:43:54.109Z,98749.25
2019-06-26T06:46:23.263Z,98755.45
2019-06-26T06:48:53.418Z,98755.61
2019-06-26T06:51:22.437Z,98749.21
2019-06-26T06:53:51.615Z,98758.08
2019-06-26T06:56:21.803Z,98756.00
2019-06-26T06:58:52.266Z,98763.38
2019-06-26T07:01:22.622Z,98759.20
2019-06-26T07:03:53.247Z,98762.66
2019-06-26T07:06:23.575Z,98765.59
2019-06-26T07:08:53.857Z,98770.15
2019-06-26T07:11:24.138Z,98764.49
2019-06-26T07:13:53.373Z,98765.95
2019-06-26T07:16:23.524Z,98775.55
2019-06-26T07:18:53.889Z,98766.65
2019-06-26T07:21:23.059Z,98759.34
2019-06-26T07:23:53.068Z,98767.63
2019-06-26T07:26:23.302Z,98765.93
2019-06-26T07:28:53.663Z,98768.83
2019-06-26T07:31:23.995Z,98770.18
2019-06-26T07:33:55.718Z,98771.02
2019-06-26T07:36:26.487Z,98762.31
2019-06-26T07:38:58.172Z,98768.56
2019-06-26T07:41:28.423Z,98768.56
2019-06-26T07:43:58.558Z,98766.64
2019-06-26T07:46:29.045Z,98779.88
2019-06-26T07:48:59.693Z,98772.78
2019-06-26T07:51:32.154Z,98779.52
2019-06-26T07:54:02.400Z,98781.83
2019-06-26T07:56:32.572Z,98777.70
2019-06-26T07:59:02.854Z,98781.77
2019-06-26T08:01:33.243Z,98780.72
2019-06-26T08:04:04.918Z,98785.42
2019-06-26T08:06:35.213Z,98787.41
2019-06-26T08:09:06.689Z,98787.73
2019-06-26T08:11:37.015Z,98794.35
2019-06-26T08:14:07.739Z,98790.25
2019-06-26T08:16:37.976Z,98788.45
2019-06-26T08:19:08.454Z,98794.72
2019-06-26T08:21:38.549Z,98791.55
2019-06-26T08:24:08.698Z,98792.80
2019-06-26T08:26:38.837Z,98799.73
2019-06-26T08:29:09.129Z,98803.66
2019-06-26T08:31:39.729Z,98799.29
2019-06-26T08:34:10.329Z,98803.39
2019-06-26T08:36:40.534Z,98802.32
2019-06-26T08:39:10.769Z,98798.31
2019-06-26T08:41:40.972Z,98795.05
2019-06-26T08:44:11.144Z,98801.08
2019-06-26T08:46:41.485Z,98796.54
2019-06-26T08:49:24.896Z,98794.72
2019-06-26T08:51:43.799Z,98791.41
2019-06-26T08:54:13.987Z,98795.76
2019-06-26T08:56:44.130Z,98793.91
2019-06-26T08:59:14.350Z,98788.97
2019-06-26T09:01:44.490Z,98790.35
2019-06-26T09:04:15.863Z,98793.48
2019-06-26T09:06:46.014Z,98792.14
2019-06-26T09:09:16.168Z,98798.80
2019-06-26T09:11:46.483Z,98795.69
2019-06-26T09:14:16.770Z,98792.17
2019-06-26T09:16:47.149Z,98790.59
2019-06-26T09:19:17.638Z,98788.10
2019-06-26T09:21:50.897Z,98791.58
2019-06-26T09:24:19.965Z,98787.13
2019-06-26T09:26:51.269Z,98792.03
2019-06-26T09:29:24.003Z,98789.84
2019-06-26T09:31:53.678Z,98794.14
2019-06-26T09:34:23.928Z,98789.45
2019-06-26T09:36:54.065Z,98792.09
2019-06-26T09:39:25.139Z,98789.24
2019-06-26T09:41:55.454Z,98798.36
2019-06-26T09:44:25.728Z,98795.03
2019-06-26T09:46:55.870Z,98795.23
2019-06-26T09:49:25.995Z,98798.06
2019-06-26T09:51:56.488Z,98791.88
2019-06-26T09:54:26.739Z,98791.05
2019-06-26T09:56:56.932Z,98792.39
2019-06-26T09:59:27.119Z,98791.36
2019-06-26T10:01:57.271Z,98787.80
2019-06-26T10:04:27.407Z,98791.95
2019-06-26T10:06:57.791Z,98786.98
2019-06-26T10:09:28.268Z,98788.11
2019-06-26T10:11:58.626Z,98793.94
2019-06-26T10:14:46.191Z,98784.80
2019-06-26T10:17:01.048Z,98787.28
2019-06-26T10:19:31.696Z,98784.53
2019-06-26T10:22:02.372Z,98782.19
2019-06-26T10:24:32.711Z,98782.98
2019-06-26T10:27:02.960Z,98781.89
2019-06-26T10:29:33.136Z,98781.81
2019-06-26T10:32:03.442Z,98790.21
2019-06-26T10:34:33.668Z,98773.83
2019-06-26T10:37:04.035Z,98780.59
2019-06-26T10:39:35.673Z,98774.91
2019-06-26T10:42:06.055Z,98769.88
2019-06-26T10:44:36.205Z,98772.62
2019-06-26T10:47:06.503Z,98771.38
2019-06-26T10:49:36.732Z,98769.26
2019-06-26T10:52:07.065Z,98764.02
2019-06-26T10:54:37.332Z,98765.64
2019-06-26T10:57:07.637Z,98762.78
2019-06-26T10:59:38.136Z,98763.09
2019-06-26T11:02:08.844Z,98759.66
2019-06-26T11:04:39.160Z,98748.38
2019-06-26T11:07:09.847Z,98743.27
2019-06-26T11:09:40.145Z,98746.05
2019-06-26T11:12:10.507Z,98745.39
2019-06-26T11:14:41.717Z,98745.53
2019-06-26T11:17:11.995Z,98747.14
2019-06-26T11:19:44.221Z,98740.77
2019-06-26T11:22:15.409Z,98740.91
2019-06-26T11:24:47.340Z,98741.28
2019-06-26T11:27:17.710Z,98731.53
2019-06-26T11:29:48.255Z,98722.44
2019-06-26T11:32:18.741Z,98721.42
2019-06-26T11:34:49.185Z,98724.73
2019-06-26T11:37:22.826Z,98720.19
2019-06-26T11:39:51.676Z,98722.50
2019-06-26T11:42:25.262Z,98728.13
2019-06-26T11:44:55.544Z,98729.36
2019-06-26T11:47:25.961Z,98718.05
2019-06-26T11:50:00.323Z,98722.98
2019-06-26T11:52:29.100Z,98716.69
2019-06-26T11:55:03.129Z,98726.35
2019-06-26T11:57:32.365Z,98718.45
2019-06-26T12:00:02.773Z,98725.16
2019-06-26T12:02:33.151Z,98723.95
2019-06-26T12:05:03.504Z,98719.55
2019-06-26T12:07:33.720Z,98716.42
2019-06-26T12:10:04.802Z,98716.47
2019-06-26T12:12:35.137Z,98706.86
2019-06-26T12:15:06.529Z,98703.50
2019-06-26T12:17:36.856Z,98711.17
2019-06-26T12:20:18.093Z,98700.59
2019-06-26T12:31:02.676Z,98707.36
2019-06-26T12:33:32.948Z,98702.91
2019-06-26T12:36:03.249Z,98696.76
2019-06-26T12:38:33.713Z,98697.30
2019-06-26T12:41:04.488Z,98694.55
2019-06-26T12:43:34.658Z,98698.55
2019-06-26T12:46:04.911Z,98689.12
2019-06-26T12:48:35.185Z,98685.81
2019-06-26T12:51:05.765Z,98682.22
2019-06-26T12:53:36.074Z,98681.47
2019-06-26T12:56:06.546Z,98677.96
2019-06-26T12:58:36.841Z,98680.83
2019-06-26T13:01:07.068Z,98677.73
2019-06-26T13:03:37.266Z,98673.18
2019-06-26T13:06:07.676Z,98669.86
2019-06-26T13:08:38.327Z,98675.80
2019-06-26T13:11:08.833Z,98667.80
2019-06-26T13:13:39.144Z,98664.84
2019-06-26T13:16:09.755Z,98659.86
2019-06-26T13:18:40.119Z,98657.47
2019-06-26T13:21:10.570Z,98656.35
2019-06-26T13:23:40.945Z,98657.16
2019-06-26T13:26:11.396Z,98653.53
2019-06-26T13:28:41.797Z,98646.60
2019-06-26T13:31:12.125Z,98644.73
2019-06-26T13:33:42.541Z,98646.95
2019-06-26T13:36:13.497Z,98644.13
2019-06-26T13:38:44.230Z,98640.51
2019-06-26T13:41:16.064Z,98643.51
2019-06-26T13:43:46.471Z,98641.79
2019-06-26T13:46:17.215Z,98641.14
2019-06-26T13:48:47.862Z,98645.72
2019-06-26T13:51:21.493Z,98641.93
2019-06-26T13:53:50.891Z,98634.54
2019-06-26T13:56:21.262Z,98638.92
2019-06-26T13:58:52.010Z,98637.78
2019-06-26T14:01:23.311Z,98629.68
2019-06-26T14:03:53.898Z,98634.54
2019-06-26T14:06:24.486Z,98637.34
2019-06-26T14:08:55.107Z,98632.50
2019-06-26T14:11:25.500Z,98632.95
2019-06-26T14:13:56.341Z,98631.17
2019-06-26T14:16:29.772Z,98635.31
2019-06-26T14:18:58.794Z,98635.14
2019-06-26T14:21:29.416Z,98626.67
2019-06-26T14:24:00.210Z,98625.21
2019-06-26T14:26:30.489Z,98621.29
2019-06-26T14:29:01.222Z,98621.93
2019-06-26T14:31:31.706Z,98635.73
2019-06-26T14:34:02.455Z,98621.58
2019-06-26T14:36:32.842Z,98622.02
2019-06-26T14:39:03.410Z,98609.98
2019-06-26T14:41:38.995Z,98609.98
2019-06-26T14:44:07.672Z,98614.33
2019-06-26T14:46:37.918Z,98613.67
2019-06-26T14:49:08.722Z,98609.73
2019-06-26T14:51:46.694Z,98615.08
2019-06-26T14:54:10.967Z,98612.09
2019-06-26T14:56:42.551Z,98611.00
2019-06-26T14:59:12.699Z,98605.33
2019-06-26T15:01:43.010Z,98605.03
2019-06-26T15:04:13.248Z,98602.69
2019-06-26T15:06:44.027Z,98598.63
2019-06-26T15:09:14.267Z,98600.80
2019-06-26T15:11:44.565Z,98597.98
2019-06-26T15:14:14.851Z,98593.26
2019-06-26T15:16:45.211Z,98593.70
2019-06-26T15:19:15.817Z,98588.00
2019-06-26T15:21:57.758Z,98586.47
2019-06-26T15:24:18.985Z,98586.14
2019-06-26T15:26:49.447Z,98583.30
2019-06-26T15:29:19.875Z,98582.32
2019-06-26T15:31:50.340Z,98573.22
2019-06-26T15:34:20.781Z,98572.06
2019-06-26T15:36:52.489Z,98571.92
2019-06-26T15:39:22.716Z,98573.11
2019-06-26T15:41:53.052Z,98576.97
2019-06-26T15:44:23.569Z,98569.02
2019-06-26T15:46:54.028Z,98572.98
2019-06-26T15:49:24.343Z,98567.59
2019-06-26T15:51:54.554Z,98564.88
2019-06-26T15:54:24.870Z,98563.73
2019-06-26T15:56:55.418Z,98563.73
2019-06-26T15:59:26.201Z,98568.29
2019-06-26T16:01:56.614Z,98561.59
2019-06-26T16:04:27.020Z,98560.00
2019-06-26T16:06:57.821Z,98554.84
2019-06-26T16:09:28.138Z,98558.55
2019-06-26T16:11:59.125Z,98559.20
2019-06-26T16:14:29.435Z,98555.67
2019-06-26T16:17:03.064Z,98552.59
2019-06-26T16:19:33.267Z,98559.38
2019-06-26T16:22:03.981Z,98556.64
2019-06-26T16:24:34.239Z,98550.80
2019-06-26T16:27:04.764Z,98556.77
2019-06-26T16:29:35.189Z,98555.55
2019-06-26T16:32:05.531Z,98548.65
2019-06-26T16:34:35.771Z,98549.08
2019-06-26T16:37:06.169Z,98551.83
2019-06-26T16:39:36.737Z,98549.88
2019-06-26T16:42:07.070Z,98550.55
2019-06-26T16:44:37.499Z,98555.66
2019-06-26T16:47:08.089Z,98552.02
2019-06-26T16:49:38.633Z,98550.98
2019-06-26T16:52:09.055Z,98553.03
2019-06-26T16:54:39.403Z,98546.50
2019-06-26T16:57:09.646Z,98549.24
2019-06-26T16:59:39.993Z,98549.24
2019-06-26T17:02:10.470Z,98549.98
2019-06-26T17:04:40.866Z,98548.20
2019-06-26T17:07:12.138Z,98546.27
2019-06-26T17:09:44.457Z,98546.27
2019-06-26T17:12:14.565Z,98543.73
2019-06-26T17:14:45.068Z,98548.87
2019-06-26T17:17:16.738Z,98552.77
2019-06-26T17:19:47.028Z,98557.16
2019-06-26T17:22:17.621Z,98553.95
2019-06-26T17:24:48.266Z,98558.55
2019-06-26T17:27:18.718Z,98556.16
2019-06-26T17:29:48.930Z,98558.29
2019-06-26T17:32:19.097Z,98556.66
2019-06-26T17:34:49.997Z,98558.68
2019-06-26T17:37:20.298Z,98559.73
2019-06-26T17:39:50.596Z,98561.22
2019-06-26T17:42:24.127Z,98559.94
2019-06-26T17:44:56.852Z,98559.25
2019-06-26T17:47:27.309Z,98561.34
2019-06-26T17:49:57.741Z,98558.83
2019-06-26T17:52:28.405Z,98559.28
2019-06-26T17:54:58.732Z,98556.05
2019-06-26T17:57:29.710Z,98559.56
2019-06-26T17:59:59.936Z,98555.38
2019-06-26T18:02:30.384Z,98557.09
2019-06-26T18:05:01.084Z,98559.66
2019-06-26T18:07:31.442Z,98552.28
2019-06-26T18:10:01.754Z,98552.30
2019-06-26T18:12:32.102Z,98560.02
2019-06-26T18:15:02.710Z,98558.92
2019-06-26T18:17:33.369Z,98557.94
2019-06-26T18:20:04.109Z,98552.03
2019-06-26T18:22:34.769Z,98557.28
2019-06-26T18:25:05.207Z,98557.94
2019-06-26T18:27:35.648Z,98554.46
2019-06-26T18:30:06.833Z,98552.50
2019-06-26T18:32:37.591Z,98549.73
2019-06-26T18:35:08.223Z,98551.75
2019-06-26T18:37:38.855Z,98552.56
2019-06-26T18:40:09.365Z,98555.45
2019-06-26T18:42:40.026Z,98556.30
2019-06-26T18:45:11.245Z,98558.85
2019-06-26T18:47:42.088Z,98561.40
2019-06-26T18:50:13.646Z,98564.61
2019-06-26T18:52:44.378Z,98560.83
2019-06-26T18:55:15.083Z,98554.58
2019-06-26T18:57:45.853Z,98560.49
2019-06-26T19:00:17.471Z,98555.83
2019-06-26T19:02:49.010Z,98563.41
2019-06-26T19:05:19.986Z,98552.25
2019-06-26T19:07:50.551Z,98557.77
2019-06-26T19:10:21.289Z,98552.30
2019-06-26T19:12:53.055Z,98556.98
2019-06-26T19:15:24.912Z,98559.59
2019-06-26T19:17:57.246Z,98553.77
2019-06-26T19:20:28.435Z,98552.79
2019-06-26T19:22:59.067Z,98547.50
2019-06-26T19:25:30.227Z,98558.33
2019-06-26T19:28:01.199Z,98557.17
2019-06-26T19:30:31.796Z,98559.25
2019-06-26T19:33:03.180Z,98559.83
2019-06-26T19:35:33.962Z,98555.34
2019-06-26T19:38:04.934Z,98566.03
2019-06-26T19:40:35.943Z,98567.34
2019-06-26T19:43:11.007Z,98565.25
2019-06-26T19:45:47.042Z,98572.69
2019-06-26T19:48:18.543Z,98577.05
2019-06-26T19:50:49.430Z,98581.97
2019-06-26T19:53:20.706Z,98581.97
2019-06-26T19:55:51.944Z,98586.36
2019-06-26T19:58:22.742Z,98590.73
2019-06-26T20:00:53.567Z,98593.31
2019-06-26T20:03:24.267Z,98598.31
2019-06-26T20:05:54.949Z,98596.14
2019-06-26T20:08:26.680Z,98602.92
2019-06-26T20:10:57.137Z,98603.92
2019-06-26T20:13:27.580Z,98602.73
2019-06-26T20:15:58.634Z,98608.47
2019-06-26T20:18:29.318Z,98601.31
2019-06-26T20:20:59.864Z,98604.88
2019-06-26T20:23:30.652Z,98615.17
2019-06-26T20:26:01.896Z,98614.38
2019-06-26T20:28:32.622Z,98616.17
2019-06-26T20:31:03.624Z,98615.77
2019-06-26T20:33:34.346Z,98615.16
2019-06-26T20:36:04.879Z,98609.34
2019-06-26T20:38:35.351Z,98613.08
2019-06-26T20:41:06.282Z,98608.70
2019-06-26T20:43:36.633Z,98608.70
2019-06-26T20:46:07.405Z,98620.72
2019-06-26T20:48:38.057Z,98618.31
2019-06-26T20:51:08.673Z,98613.13
2019-06-26T20:53:41.224Z,98620.16
2019-06-26T20:56:11.552Z,98616.63
2019-06-26T20:58:42.141Z,98618.94
2019-06-26T21:01:12.756Z,98628.20
2019-06-26T21:03:43.404Z,98623.63
2019-06-26T21:06:14.156Z,98619.25
2019-06-26T21:08:45.856Z,98628.37
2019-06-26T21:11:17.005Z,98627.97
2019-06-26T21:13:47.485Z,98626.75
2019-06-26T21:16:17.991Z,98625.36
2019-06-26T21:18:49.427Z,98624.33
2019-06-26T21:21:20.091Z,98624.91
2019-06-26T21:23:50.761Z,98628.52
2019-06-26T21:26:21.428Z,98625.53
2019-06-26T21:28:52.114Z,98630.48
2019-06-26T21:31:23.013Z,98638.39
2019-06-26T21:33:54.134Z,98638.95
2019-06-26T21:36:25.367Z,98631.04
2019-06-26T21:38:57.373Z,98629.58
2019-06-26T21:41:28.291Z,98634.30
2019-06-26T21:43:58.754Z,98633.34
2019-06-26T21:46:29.275Z,98630.16
2019-06-26T21:48:59.795Z,98628.75
2019-06-26T21:51:30.485Z,98627.34
2019-06-26T21:54:00.648Z,98633.83
2019-06-26T21:56:49.117Z,98635.22
2019-06-26T21:59:37.600Z,98631.06
2019-06-26T22:02:25.799Z,98618.75
2019-06-26T22:04:57.820Z,98625.06
2019-06-26T22:07:29.955Z,98631.93
2019-06-26T22:10:17.958Z,98631.83
2019-06-26T22:12:48.236Z,98633.55
2019-06-26T22:15:19.378Z,98635.54
2019-06-26T22:17:49.909Z,98638.39
2019-06-26T22:20:20.434Z,98634.80
2019-06-26T22:22:50.667Z,98634.80
2019-06-26T22:25:20.973Z,98639.34
2019-06-26T22:27:51.102Z,98634.69
2019-06-26T22:30:21.518Z,98635.20
2019-06-26T22:32:51.709Z,98635.75
2019-06-26T22:35:23.312Z,98640.67
2019-06-26T22:37:54.739Z,98646.78
2019-06-26T22:40:25.104Z,98645.78
2019-06-26T22:42:55.389Z,98649.86
2019-06-26T22:45:25.738Z,98644.23
2019-06-26T22:47:56.352Z,98644.00
2019-06-26T22:50:26.680Z,98644.16
2019-06-26T22:52:56.997Z,98643.14
2019-06-26T22:55:27.333Z,98643.87
2019-06-26T22:57:57.582Z,98639.04
2019-06-26T23:00:28.886Z,98633.83
2019-06-26T23:02:59.543Z,98636.40
2019-06-26T23:05:31.331Z,98635.63
2019-06-26T23:08:01.533Z,98633.72
2019-06-26T23:10:32.089Z,98635.38
2019-06-26T23:13:02.411Z,98635.11
2019-06-26T23:15:32.762Z,98640.37
2019-06-26T23:18:03.169Z,98629.66
2019-06-26T23:20:33.821Z,98633.42
2019-06-26T23:23:04.205Z,98632.27
2019-06-26T23:25:34.436Z,98639.84
2019-06-26T23:28:04.630Z,98640.30
2019-06-26T23:30:34.941Z,98643.48
2019-06-26T23:33:05.095Z,98643.30
2019-06-26T23:35:35.312Z,98635.81
2019-06-26T23:38:05.750Z,98647.28
2019-06-26T23:40:35.922Z,98645.98
2019-06-26T23:43:06.162Z,98640.83
2019-06-26T23:45:36.622Z,98642.89
2019-06-26T23:48:07.636Z,98642.89
2019-06-26T23:50:39.131Z,98644.41
2019-06-26T23:53:10.461Z,98642.33
2019-06-26T23:55:40.732Z,98647.08
2019-06-26T23:58:10.837Z,98639.95
